sensor_id;sensor_type;location;lat;lon;timestamp;pressure;altitude;pressure_sealevel;temperature;humidity
45525;BME280;31437;58.350;13.828;2023-02-13T00:02:24;102185.94;;;2.42;100.00
45525;BME280;31437;58.350;13.828;2023-02-13T00:04:49;102192.84;;;2.43;100.00
45525;BME280;31437;58.350;13.828;2023-02-13T00:07:14;102187.66;;;2.40;100.00
45525;BME280;31437;58.350;13.828;2023-02-13T00:09:39;102185.91;;;2.39;100.00
45525;BME280;31437;58.350;13.828;2023-02-13T00:12:05;102184.16;;;2.37;100.00
45525;BME280;31437;58.350;13.828;2023-02-13T00:14:33;102197.16;;;2.38;100.00
45525;BME280;31437;58.350;13.828;2023-02-13T00:16:59;102194.53;;;2.37;100.00
45525;BME280;31437;58.350;13.828;2023-02-13T00:19:24;102196.25;;;2.36;100.00
45525;BME280;31437;58.350;13.828;2023-02-13T00:21:49;102185.84;;;2.35;100.00
45525;BME280;31437;58.350;13.828;2023-02-13T00:24:15;102185.00;;;2.34;100.00
45525;BME280;31437;58.350;13.828;2023-02-13T00:26:40;102194.53;;;2.37;100.00
45525;BME280;31437;58.350;13.828;2023-02-13T00:29:05;102191.94;;;2.37;100.00
45525;BME280;31437;58.350;13.828;2023-02-13T00:31:31;102185.03;;;2.36;100.00
45525;BME280;31437;58.350;13.828;2023-02-13T00:33:56;102185.88;;;2.36;100.00
45525;BME280;31437;58.350;13.828;2023-02-13T00:36:21;102191.91;;;2.35;100.00
45525;BME280;31437;58.350;13.828;2023-02-13T00:38:47;102197.03;;;2.32;100.00
45525;BME280;31437;58.350;13.828;2023-02-13T00:41:12;102192.75;;;2.33;100.00
45525;BME280;31437;58.350;13.828;2023-02-13T00:43:38;102210.94;;;2.37;100.00
45525;BME280;31437;58.350;13.828;2023-02-13T00:46:04;102205.75;;;2.37;100.00
45525;BME280;31437;58.350;13.828;2023-02-13T00:48:30;102192.78;;;2.36;100.00
45525;BME280;31437;58.350;13.828;2023-02-13T00:50:56;102197.97;;;2.37;100.00
45525;BME280;31437;58.350;13.828;2023-02-13T00:53:22;102199.69;;;2.37;100.00
45525;BME280;31437;58.350;13.828;2023-02-13T00:55:48;102207.47;;;2.37;100.00
45525;BME280;31437;58.350;13.828;2023-02-13T00:58:13;102201.44;;;2.38;100.00
45525;BME280;31437;58.350;13.828;2023-02-13T01:00:39;102187.63;;;2.36;100.00
45525;BME280;31437;58.350;13.828;2023-02-13T01:03:05;102201.41;;;2.33;100.00
45525;BME280;31437;58.350;13.828;2023-02-13T01:05:30;102209.16;;;2.35;100.00
45525;BME280;31437;58.350;13.828;2023-02-13T01:07:56;102204.84;;;2.35;100.00
45525;BME280;31437;58.350;13.828;2023-02-13T01:10:21;102207.44;;;2.35;100.00
45525;BME280;31437;58.350;13.828;2023-02-13T01:12:46;102209.19;;;2.38;100.00
45525;BME280;31437;58.350;13.828;2023-02-13T01:15:11;102211.75;;;2.35;100.00
45525;BME280;31437;58.350;13.828;2023-02-13T01:17:37;102210.03;;;2.35;100.00
45525;BME280;31437;58.350;13.828;2023-02-13T01:20:06;102210.88;;;2.34;100.00
45525;BME280;31437;58.350;13.828;2023-02-13T01:22:32;102197.06;;;2.34;100.00
45525;BME280;31437;58.350;13.828;2023-02-13T01:24:58;102200.53;;;2.33;100.00
45525;BME280;31437;58.350;13.828;2023-02-13T01:27:23;102198.75;;;2.30;100.00
45525;BME280;31437;58.350;13.828;2023-02-13T01:29:48;102190.13;;;2.30;100.00
45525;BME280;31437;58.350;13.828;2023-02-13T01:32:13;102190.97;;;2.27;100.00
45525;BME280;31437;58.350;13.828;2023-02-13T01:34:39;102199.56;;;2.24;100.00
45525;BME280;31437;58.350;13.828;2023-02-13T01:37:04;102191.75;;;2.23;100.00
45525;BME280;31437;58.350;13.828;2023-02-13T01:39:29;102193.47;;;2.21;100.00
45525;BME280;31437;58.350;13.828;2023-02-13T01:41:54;102193.44;;;2.18;100.00
45525;BME280;31437;58.350;13.828;2023-02-13T01:47:04;102202.00;;;2.14;100.00
45525;BME280;31437;58.350;13.828;2023-02-13T01:49:29;102197.66;;;2.11;100.00
45525;BME280;31437;58.350;13.828;2023-02-13T01:51:54;102194.22;;;2.12;100.00
45525;BME280;31437;58.350;13.828;2023-02-13T01:54:22;102194.22;;;2.12;100.00
45525;BME280;31437;58.350;13.828;2023-02-13T01:56:56;102194.22;;;2.12;100.00
45525;BME280;31437;58.350;13.828;2023-02-13T01:59:24;102181.28;;;2.12;100.00
45525;BME280;31437;58.350;13.828;2023-02-13T02:01:51;102188.16;;;2.12;100.00
45525;BME280;31437;58.350;13.828;2023-02-13T02:04:21;102192.47;;;2.11;100.00
45525;BME280;31437;58.350;13.828;2023-02-13T02:06:49;102198.50;;;2.12;100.00
45525;BME280;31437;58.350;13.828;2023-02-13T02:09:17;102195.06;;;2.11;100.00
45525;BME280;31437;58.350;13.828;2023-02-13T02:14:09;102194.19;;;2.11;100.00
45525;BME280;31437;58.350;13.828;2023-02-13T02:16:34;102195.09;;;2.13;100.00
45525;BME280;31437;58.350;13.828;2023-02-13T02:19:08;102200.31;;;2.16;100.00
45525;BME280;31437;58.350;13.828;2023-02-13T02:21:45;102198.56;;;2.13;100.00
45525;BME280;31437;58.350;13.828;2023-02-13T02:27:10;102208.09;;;2.17;100.00
45525;BME280;31437;58.350;13.828;2023-02-13T02:34:47;102212.44;;;2.20;100.00
45525;BME280;31437;58.350;13.828;2023-02-13T02:39:54;102216.75;;;2.18;100.00
45525;BME280;31437;58.350;13.828;2023-02-13T02:44:53;102215.81;;;2.13;100.00
45525;BME280;31437;58.350;13.828;2023-02-13T02:47:24;102220.13;;;2.12;100.00
45525;BME280;31437;58.350;13.828;2023-02-13T02:57:41;102189.81;;;2.03;100.00
45525;BME280;31437;58.350;13.828;2023-02-13T03:00:25;102198.38;;;1.99;100.00
45525;BME280;31437;58.350;13.828;2023-02-13T03:03:19;102205.25;;;1.99;100.00
45525;BME280;31437;58.350;13.828;2023-02-13T03:06:05;102207.81;;;1.96;100.00
45525;BME280;31437;58.350;13.828;2023-02-13T03:08:40;102212.13;;;1.95;100.00
45525;BME280;31437;58.350;13.828;2023-02-13T03:11:25;102205.19;;;1.91;100.00
45525;BME280;31437;58.350;13.828;2023-02-13T03:14:09;102206.03;;;1.92;100.00
45525;BME280;31437;58.350;13.828;2023-02-13T03:16:36;102200.84;;;1.90;100.00
45525;BME280;31437;58.350;13.828;2023-02-13T03:25:20;102211.97;;;1.83;100.00
45525;BME280;31437;58.350;13.828;2023-02-13T03:27:58;102215.38;;;1.80;100.00
45525;BME280;31437;58.350;13.828;2023-02-13T03:30:48;102216.19;;;1.78;100.00
45525;BME280;31437;58.350;13.828;2023-02-13T03:33:28;102207.56;;;1.77;100.00
45525;BME280;31437;58.350;13.828;2023-02-13T03:41:27;102222.19;;;1.74;100.00
45525;BME280;31437;58.350;13.828;2023-02-13T03:46:25;102231.59;;;1.69;100.00
45525;BME280;31437;58.350;13.828;2023-02-13T03:48:53;102228.09;;;1.67;100.00
45525;BME280;31437;58.350;13.828;2023-02-13T03:51:46;102238.50;;;1.70;100.00
45525;BME280;31437;58.350;13.828;2023-02-13T03:54:24;102241.94;;;1.69;100.00
45525;BME280;31437;58.350;13.828;2023-02-13T03:57:10;102245.44;;;1.71;100.00
45525;BME280;31437;58.350;13.828;2023-02-13T03:59:56;102235.94;;;1.71;100.00
45525;BME280;31437;58.350;13.828;2023-02-13T04:02:24;102235.03;;;1.69;100.00
45525;BME280;31437;58.350;13.828;2023-02-13T04:05:08;102235.03;;;1.69;100.00
45525;BME280;31437;58.350;13.828;2023-02-13T04:07:37;102242.81;;;1.69;100.00
45525;BME280;31437;58.350;13.828;2023-02-13T04:10:12;102239.34;;;1.70;100.00
45525;BME280;31437;58.350;13.828;2023-02-13T04:15:06;102260.09;;;1.72;100.00
45525;BME280;31437;58.350;13.828;2023-02-13T04:17:35;102254.06;;;1.73;100.00
45525;BME280;31437;58.350;13.828;2023-02-13T04:20:00;102254.94;;;1.73;100.00
45525;BME280;31437;58.350;13.828;2023-02-13T04:22:26;102256.66;;;1.73;100.00
45525;BME280;31437;58.350;13.828;2023-02-13T04:24:51;102249.75;;;1.72;100.00
45525;BME280;31437;58.350;13.828;2023-02-13T04:27:17;102260.09;;;1.73;100.00
45525;BME280;31437;58.350;13.828;2023-02-13T04:29:42;102270.44;;;1.72;100.00
45525;BME280;31437;58.350;13.828;2023-02-13T04:32:11;102267.91;;;1.75;100.00
45525;BME280;31437;58.350;13.828;2023-02-13T04:34:38;102271.34;;;1.74;100.00
45525;BME280;31437;58.350;13.828;2023-02-13T04:37:03;102265.22;;;1.70;100.00
45525;BME280;31437;58.350;13.828;2023-02-13T04:39:28;102266.94;;;1.68;100.00
45525;BME280;31437;58.350;13.828;2023-02-13T04:41:54;102257.44;;;1.67;100.00
45525;BME280;31437;58.350;13.828;2023-02-13T04:44:19;102260.88;;;1.66;100.00
45525;BME280;31437;58.350;13.828;2023-02-13T04:46:44;102258.25;;;1.65;100.00
45525;BME280;31437;58.350;13.828;2023-02-13T04:49:09;102266.00;;;1.65;100.00
45525;BME280;31437;58.350;13.828;2023-02-13T04:51:35;102262.59;;;1.66;100.00
45525;BME280;31437;58.350;13.828;2023-02-13T04:54:00;102274.66;;;1.65;100.00
45525;BME280;31437;58.350;13.828;2023-02-13T04:56:25;102268.59;;;1.63;100.00
45525;BME280;31437;58.350;13.828;2023-02-13T04:58:51;102269.41;;;1.61;100.00
45525;BME280;31437;58.350;13.828;2023-02-13T05:01:16;102271.13;;;1.60;100.00
45525;BME280;31437;58.350;13.828;2023-02-13T05:03:41;102276.31;;;1.60;100.00
45525;BME280;31437;58.350;13.828;2023-02-13T05:06:07;102270.25;;;1.59;100.00
45525;BME280;31437;58.350;13.828;2023-02-13T05:08:32;102265.91;;;1.57;100.00
45525;BME280;31437;58.350;13.828;2023-02-13T05:10:57;102272.75;;;1.55;100.00
45525;BME280;31437;58.350;13.828;2023-02-13T05:13:23;102287.38;;;1.53;100.00
45525;BME280;31437;58.350;13.828;2023-02-13T05:15:48;102273.56;;;1.51;100.00
45525;BME280;31437;58.350;13.828;2023-02-13T05:18:13;102288.19;;;1.49;100.00
45525;BME280;31437;58.350;13.828;2023-02-13T05:20:40;102274.34;;;1.47;100.00
45525;BME280;31437;58.350;13.828;2023-02-13T05:23:07;102278.66;;;1.45;100.00
45525;BME280;31437;58.350;13.828;2023-02-13T05:25:49;102292.44;;;1.45;100.00
45525;BME280;31437;58.350;13.828;2023-02-13T05:28:15;102276.06;;;1.45;100.00
45525;BME280;31437;58.350;13.828;2023-02-13T05:30:59;102302.75;;;1.44;100.00
45525;BME280;31437;58.350;13.828;2023-02-13T05:33:25;102287.22;;;1.42;100.00
45525;BME280;31437;58.350;13.828;2023-02-13T05:35:50;102303.56;;;1.40;100.00
45525;BME280;31437;58.350;13.828;2023-02-13T05:38:15;102305.28;;;1.39;100.00
45525;BME280;31437;58.350;13.828;2023-02-13T05:40:40;102304.38;;;1.37;100.00
45525;BME280;31437;58.350;13.828;2023-02-13T05:43:06;102300.03;;;1.36;100.00
45525;BME280;31437;58.350;13.828;2023-02-13T05:45:31;102300.00;;;1.34;100.00
45525;BME280;31437;58.350;13.828;2023-02-13T05:47:56;102300.81;;;1.32;100.00
45525;BME280;31437;58.350;13.828;2023-02-13T05:50:22;102301.69;;;1.31;100.00
45525;BME280;31437;58.350;13.828;2023-02-13T05:52:47;102312.88;;;1.30;100.00
45525;BME280;31437;58.350;13.828;2023-02-13T05:55:12;102307.69;;;1.30;100.00
45525;BME280;31437;58.350;13.828;2023-02-13T05:57:37;102305.94;;;1.27;100.00
45525;BME280;31437;58.350;13.828;2023-02-13T06:00:03;102310.28;;;1.30;100.00
45525;BME280;31437;58.350;13.828;2023-02-13T06:02:29;102308.50;;;1.27;100.00
45525;BME280;31437;58.350;13.828;2023-02-13T06:04:54;102301.56;;;1.25;100.00
45525;BME280;31437;58.350;13.828;2023-02-13T06:07:19;102313.59;;;1.23;100.00
45525;BME280;31437;58.350;13.828;2023-02-13T06:09:44;102317.94;;;1.24;100.00
45525;BME280;31437;58.350;13.828;2023-02-13T06:12:10;102335.13;;;1.23;100.00
45525;BME280;31437;58.350;13.828;2023-02-13T06:14:35;102330.88;;;1.25;100.00
45525;BME280;31437;58.350;13.828;2023-02-13T06:17:00;102334.28;;;1.23;100.00
45525;BME280;31437;58.350;13.828;2023-02-13T06:19:26;102328.22;;;1.21;100.00
45525;BME280;31437;58.350;13.828;2023-02-13T06:21:51;102329.91;;;1.20;100.00
45525;BME280;31437;58.350;13.828;2023-02-13T06:24:16;102335.09;;;1.20;100.00
45525;BME280;31437;58.350;13.828;2023-02-13T06:26:41;102341.16;;;1.21;100.00
45525;BME280;31437;58.350;13.828;2023-02-13T06:29:07;102353.25;;;1.23;100.00
45525;BME280;31437;58.350;13.828;2023-02-13T06:31:33;102354.94;;;1.21;100.00
45525;BME280;31437;58.350;13.828;2023-02-13T06:33:58;102347.16;;;1.20;100.00
45525;BME280;31437;58.350;13.828;2023-02-13T06:36:23;102356.63;;;1.19;100.00
45525;BME280;31437;58.350;13.828;2023-02-13T06:38:49;102354.09;;;1.21;100.00
45525;BME280;31437;58.350;13.828;2023-02-13T06:41:14;102373.97;;;1.25;100.00
45525;BME280;31437;58.350;13.828;2023-02-13T06:43:39;102375.69;;;1.26;100.00
45525;BME280;31437;58.350;13.828;2023-02-13T06:46:05;102383.50;;;1.27;100.00
45525;BME280;31437;58.350;13.828;2023-02-13T06:48:30;102381.75;;;1.26;100.00
45525;BME280;31437;58.350;13.828;2023-02-13T06:50:56;102393.81;;;1.26;100.00
45525;BME280;31437;58.350;13.828;2023-02-13T06:53:21;102396.34;;;1.23;100.00
45525;BME280;31437;58.350;13.828;2023-02-13T06:55:49;102387.69;;;1.21;100.00
45525;BME280;31437;58.350;13.828;2023-02-13T06:58:15;102385.06;;;1.19;100.00
45525;BME280;31437;58.350;13.828;2023-02-13T07:00:40;102382.53;;;1.21;100.00
45525;BME280;31437;58.350;13.828;2023-02-13T07:03:05;102395.53;;;1.25;100.00
45525;BME280;31437;58.350;13.828;2023-02-13T07:05:31;102404.22;;;1.29;100.00
45525;BME280;31437;58.350;13.828;2023-02-13T07:07:56;102401.63;;;1.29;100.00
45525;BME280;31437;58.350;13.828;2023-02-13T07:10:22;102391.31;;;1.30;100.00
45525;BME280;31437;58.350;13.828;2023-02-13T07:12:47;102380.22;;;1.36;100.00
45525;BME280;31437;58.350;13.828;2023-02-13T07:15:12;102400.16;;;1.42;100.00
45525;BME280;31437;58.350;13.828;2023-02-13T07:17:38;102409.75;;;1.47;100.00
45525;BME280;31437;58.350;13.828;2023-02-13T07:20:04;102409.75;;;1.47;100.00
45525;BME280;31437;58.350;13.828;2023-02-13T07:22:30;102427.94;;;1.52;100.00
45525;BME280;31437;58.350;13.828;2023-02-13T07:24:56;102420.22;;;1.55;100.00
45525;BME280;31437;58.350;13.828;2023-02-13T07:27:22;102429.81;;;1.61;100.00
45525;BME280;31437;58.350;13.828;2023-02-13T07:29:48;102445.50;;;1.68;100.00
45525;BME280;31437;58.350;13.828;2023-02-13T07:32:13;102454.25;;;1.76;100.00
45525;BME280;31437;58.350;13.828;2023-02-13T07:34:38;102472.78;;;1.98;100.00
45525;BME280;31437;58.350;13.828;2023-02-13T07:37:04;102491.28;;;2.21;100.00
45525;BME280;31437;58.350;13.828;2023-02-13T07:39:29;102500.19;;;2.37;100.00
45525;BME280;31437;58.350;13.828;2023-02-13T07:41:55;102490.88;;;2.49;100.00
45525;BME280;31437;58.350;13.828;2023-02-13T07:44:21;102491.09;;;2.63;100.00
45525;BME280;31437;58.350;13.828;2023-02-13T07:46:46;102498.44;;;2.92;100.00
45525;BME280;31437;58.350;13.828;2023-02-13T07:49:11;102495.94;;;3.00;100.00
45525;BME280;31437;58.350;13.828;2023-02-13T07:51:36;102497.00;;;3.14;100.00
45525;BME280;31437;58.350;13.828;2023-02-13T07:54:02;102508.72;;;3.51;100.00
45525;BME280;31437;58.350;13.828;2023-02-13T07:56:27;102514.47;;;4.00;100.00
45525;BME280;31437;58.350;13.828;2023-02-13T07:58:52;102513.09;;;4.42;100.00
45525;BME280;31437;58.350;13.828;2023-02-13T08:01:18;102511.59;;;4.72;100.00
45525;BME280;31437;58.350;13.828;2023-02-13T08:03:46;102502.13;;;4.80;100.00
45525;BME280;31437;58.350;13.828;2023-02-13T08:06:11;102476.16;;;4.91;100.00
45525;BME280;31437;58.350;13.828;2023-02-13T08:08:37;102472.78;;;5.09;100.00
45525;BME280;31437;58.350;13.828;2023-02-13T08:11:06;102448.59;;;5.28;100.00
45525;BME280;31437;58.350;13.828;2023-02-13T08:13:50;102429.56;;;5.38;100.00
45525;BME280;31437;58.350;13.828;2023-02-13T08:16:16;102387.84;;;5.17;100.00
45525;BME280;31437;58.350;13.828;2023-02-13T08:18:41;102353.13;;;5.13;100.00
45525;BME280;31437;58.350;13.828;2023-02-13T08:21:07;102326.31;;;5.39;100.00
45525;BME280;31437;58.350;13.828;2023-02-13T08:23:32;102302.88;;;5.59;100.00
45525;BME280;31437;58.350;13.828;2023-02-13T08:25:58;102273.38;;;5.83;100.00
45525;BME280;31437;58.350;13.828;2023-02-13T08:28:23;102243.00;;;5.97;100.00
45525;BME280;31437;58.350;13.828;2023-02-13T08:30:48;102211.72;;;5.86;100.00
45525;BME280;31437;58.350;13.828;2023-02-13T08:33:14;102175.28;;;5.77;100.00
45525;BME280;31437;58.350;13.828;2023-02-13T08:35:39;102151.88;;;5.65;100.00
45525;BME280;31437;58.350;13.828;2023-02-13T08:38:04;102137.13;;;5.65;100.00
45525;BME280;31437;58.350;13.828;2023-02-13T08:40:30;102125.78;;;5.76;100.00
45525;BME280;31437;58.350;13.828;2023-02-13T08:42:59;102098.06;;;5.59;100.00
45525;BME280;31437;58.350;13.828;2023-02-13T08:45:25;102059.88;;;5.60;100.00
45525;BME280;31437;58.350;13.828;2023-02-13T08:47:50;102036.38;;;5.77;100.00
45525;BME280;31437;58.350;13.828;2023-02-13T08:50:19;102018.94;;;5.85;100.00
45525;BME280;31437;58.350;13.828;2023-02-13T08:52:44;102009.41;;;5.88;100.00
45525;BME280;31437;58.350;13.828;2023-02-13T08:55:09;102001.59;;;5.93;100.00
45525;BME280;31437;58.350;13.828;2023-02-13T08:57:35;101993.63;;;6.11;100.00
45525;BME280;31437;58.350;13.828;2023-02-13T09:00:00;101977.22;;;6.03;100.00
45525;BME280;31437;58.350;13.828;2023-02-13T09:02:25;101965.84;;;6.15;100.00
45525;BME280;31437;58.350;13.828;2023-02-13T09:04:50;101951.88;;;6.24;100.00
45525;BME280;31437;58.350;13.828;2023-02-13T09:07:16;101939.69;;;6.23;100.00
45525;BME280;31437;58.350;13.828;2023-02-13T09:09:41;101947.47;;;6.29;100.00
45525;BME280;31437;58.350;13.828;2023-02-13T09:12:06;101948.34;;;6.26;100.00
45525;BME280;31437;58.350;13.828;2023-02-13T09:14:32;101954.50;;;6.21;100.00
45525;BME280;31437;58.350;13.828;2023-02-13T09:17:00;101941.53;;;6.11;100.00
45525;BME280;31437;58.350;13.828;2023-02-13T09:19:26;101941.59;;;6.02;100.00
45525;BME280;31437;58.350;13.828;2023-02-13T09:21:52;101949.47;;;5.91;100.00
45525;BME280;31437;58.350;13.828;2023-02-13T09:24:17;101938.19;;;5.88;100.00
45525;BME280;31437;58.350;13.828;2023-02-13T09:26:42;101940.03;;;5.70;100.00
45525;BME280;31437;58.350;13.828;2023-02-13T09:29:08;101944.47;;;5.59;100.00
45525;BME280;31437;58.350;13.828;2023-02-13T09:31:33;101941.81;;;5.65;100.00
45525;BME280;31437;58.350;13.828;2023-02-13T09:33:58;101940.91;;;5.73;100.00
45525;BME280;31437;58.350;13.828;2023-02-13T09:36:23;101932.22;;;5.72;100.00
45525;BME280;31437;58.350;13.828;2023-02-13T09:38:53;101934.00;;;5.67;100.00
45525;BME280;31437;58.350;13.828;2023-02-13T09:43:48;101933.97;;;5.72;100.00
45525;BME280;31437;58.350;13.828;2023-02-13T09:46:18;101933.94;;;5.76;100.00
45525;BME280;31437;58.350;13.828;2023-02-13T09:48:50;101926.97;;;5.83;100.00
45525;BME280;31437;58.350;13.828;2023-02-13T09:51:18;101919.16;;;5.78;100.00
45525;BME280;31437;58.350;13.828;2023-02-13T09:53:49;101913.00;;;5.91;100.00
45525;BME280;31437;58.350;13.828;2023-02-13T09:56:16;101906.91;;;5.96;100.00
45525;BME280;31437;58.350;13.828;2023-02-13T09:58:46;101919.91;;;6.02;100.00
45525;BME280;31437;58.350;13.828;2023-02-13T10:01:17;101916.47;;;5.98;100.00
45525;BME280;31437;58.350;13.828;2023-02-13T10:06:30;101921.69;;;5.94;100.00
45525;BME280;31437;58.350;13.828;2023-02-13T10:16:36;101926.81;;;6.06;100.00
45525;BME280;31437;58.350;13.828;2023-02-13T10:19:03;101922.38;;;6.19;100.00
45525;BME280;31437;58.350;13.828;2023-02-13T10:21:35;101919.66;;;6.29;100.00
45525;BME280;31437;58.350;13.828;2023-02-13T10:24:06;101908.31;;;6.36;100.00
45525;BME280;31437;58.350;13.828;2023-02-13T10:26:35;101901.31;;;6.40;100.00
45525;BME280;31437;58.350;13.828;2023-02-13T10:31:58;101895.06;;;6.59;100.00
45525;BME280;31437;58.350;13.828;2023-02-13T10:34:25;101888.94;;;6.60;100.00
45525;BME280;31437;58.350;13.828;2023-02-13T10:36:54;101877.66;;;6.58;100.00
45525;BME280;31437;58.350;13.828;2023-02-13T10:39:23;101870.75;;;6.56;100.00
45525;BME280;31437;58.350;13.828;2023-02-13T11:00:10;101868.19;;;6.51;100.00
45525;BME280;31437;58.350;13.828;2023-02-13T11:02:40;101869.00;;;6.56;100.00
45525;BME280;31437;58.350;13.828;2023-02-13T11:05:19;101868.13;;;6.57;100.00
45525;BME280;31437;58.350;13.828;2023-02-13T11:07:45;101869.81;;;6.63;100.00
45525;BME280;31437;58.350;13.828;2023-02-13T11:10:20;101872.38;;;6.68;100.00
45525;BME280;31437;58.350;13.828;2023-02-13T11:12:46;101866.31;;;6.64;100.00
45525;BME280;31437;58.350;13.828;2023-02-13T11:15:25;101870.69;;;6.60;100.00
45525;BME280;31437;58.350;13.828;2023-02-13T11:17:52;101867.19;;;6.62;100.00
45525;BME280;31437;58.350;13.828;2023-02-13T11:22:49;101863.69;;;6.64;100.00
45525;BME280;31437;58.350;13.828;2023-02-13T11:25:20;101870.63;;;6.67;100.00
45525;BME280;31437;58.350;13.828;2023-02-13T11:27:46;101872.34;;;6.71;100.00
45525;BME280;31437;58.350;13.828;2023-02-13T11:32:57;101864.44;;;6.77;100.00
45525;BME280;31437;58.350;13.828;2023-02-13T11:35:31;101857.47;;;6.76;100.00
45525;BME280;31437;58.350;13.828;2023-02-13T11:38:09;101855.72;;;6.79;100.00
45525;BME280;31437;58.350;13.828;2023-02-13T11:40:35;101866.94;;;6.85;100.00
45525;BME280;31437;58.350;13.828;2023-02-13T11:43:00;101860.81;;;6.89;100.00
45525;BME280;31437;58.350;13.828;2023-02-13T11:45:26;101852.09;;;6.88;100.00
45525;BME280;31437;58.350;13.828;2023-02-13T11:47:52;101865.13;;;6.91;100.00
45525;BME280;31437;58.350;13.828;2023-02-13T11:50:20;101862.53;;;6.91;100.00
45525;BME280;31437;58.350;13.828;2023-02-13T11:55:25;101859.06;;;6.89;100.00
45525;BME280;31437;58.350;13.828;2023-02-13T11:57:55;101853.81;;;6.91;100.00
45525;BME280;31437;58.350;13.828;2023-02-13T12:02:52;101853.88;;;6.85;100.00
45525;BME280;31437;58.350;13.828;2023-02-13T12:05:26;101866.06;;;6.84;100.00
45525;BME280;31437;58.350;13.828;2023-02-13T12:07:53;101857.41;;;6.83;100.00
45525;BME280;31437;58.350;13.828;2023-02-13T12:10:21;101862.53;;;6.88;100.00
45525;BME280;31437;58.350;13.828;2023-02-13T12:12:56;101864.28;;;6.89;100.00
45525;BME280;31437;58.350;13.828;2023-02-13T12:17:57;101872.03;;;6.94;100.00
45525;BME280;31437;58.350;13.828;2023-02-13T12:20:26;101874.59;;;6.98;100.00
45525;BME280;31437;58.350;13.828;2023-02-13T12:27:51;101874.44;;;7.12;100.00
45525;BME280;31437;58.350;13.828;2023-02-13T12:35:29;101866.53;;;7.17;100.00
45525;BME280;31437;58.350;13.828;2023-02-13T12:38:00;101870.88;;;7.18;100.00
45525;BME280;31437;58.350;13.828;2023-02-13T12:43:17;101869.19;;;7.14;100.00
45525;BME280;31437;58.350;13.828;2023-02-13T12:45:48;101863.09;;;7.13;100.00
45525;BME280;31437;58.350;13.828;2023-02-13T12:51:03;101870.88;;;7.16;100.00
45525;BME280;31437;58.350;13.828;2023-02-13T12:53:38;101864.78;;;7.17;100.00
45525;BME280;31437;58.350;13.828;2023-02-13T12:58:40;101876.06;;;7.19;100.00
45525;BME280;31437;58.350;13.828;2023-02-13T13:01:14;101886.50;;;7.21;100.00
45525;BME280;31437;58.350;13.828;2023-02-13T13:14:04;101877.94;;;7.10;100.00
45525;BME280;31437;58.350;13.828;2023-02-13T13:16:36;101881.41;;;7.09;100.00
45525;BME280;31437;58.350;13.828;2023-02-13T13:19:14;101886.63;;;7.09;100.00
45525;BME280;31437;58.350;13.828;2023-02-13T13:26:48;101886.69;;;7.05;100.00
45525;BME280;31437;58.350;13.828;2023-02-13T13:29:22;101890.19;;;7.06;100.00
45525;BME280;31437;58.350;13.828;2023-02-13T13:31:51;101893.69;;;7.03;100.00
45525;BME280;31437;58.350;13.828;2023-02-13T13:34:19;101897.16;;;7.04;100.00
45525;BME280;31437;58.350;13.828;2023-02-13T13:36:47;101898.91;;;7.03;100.00
45525;BME280;31437;58.350;13.828;2023-02-13T13:41:46;101899.78;;;7.01;100.00
45525;BME280;31437;58.350;13.828;2023-02-13T13:44:19;101911.94;;;7.02;100.00
45525;BME280;31437;58.350;13.828;2023-02-13T13:54:54;101921.56;;;6.98;100.00
45525;BME280;31437;58.350;13.828;2023-02-13T13:57:21;101908.53;;;6.97;100.00
45525;BME280;31437;58.350;13.828;2023-02-13T14:05:00;101922.53;;;6.91;100.00
45525;BME280;31437;58.350;13.828;2023-02-13T14:07:26;101932.13;;;6.89;100.00
45525;BME280;31437;58.350;13.828;2023-02-13T14:09:57;101927.78;;;6.85;100.00
45525;BME280;31437;58.350;13.828;2023-02-13T14:14:53;101929.59;;;6.80;100.00
45525;BME280;31437;58.350;13.828;2023-02-13T14:20:14;101938.38;;;6.74;100.00
45525;BME280;31437;58.350;13.828;2023-02-13T14:22:41;101942.75;;;6.71;100.00
45525;BME280;31437;58.350;13.828;2023-02-13T14:25:19;101935.81;;;6.67;100.00
45525;BME280;31437;58.350;13.828;2023-02-13T14:27:54;101943.72;;;6.62;100.00
45525;BME280;31437;58.350;13.828;2023-02-13T14:30:41;101939.38;;;6.58;100.00
45525;BME280;31437;58.350;13.828;2023-02-13T14:33:06;101950.72;;;6.52;100.00
45525;BME280;31437;58.350;13.828;2023-02-13T14:35:33;101945.53;;;6.49;100.00
45525;BME280;31437;58.350;13.828;2023-02-13T14:38:03;101943.88;;;6.45;100.00
45525;BME280;31437;58.350;13.828;2023-02-13T14:45:56;101969.19;;;6.31;100.00
45525;BME280;31437;58.350;13.828;2023-02-13T14:48:25;101960.56;;;6.24;100.00
45525;BME280;31437;58.350;13.828;2023-02-13T14:50:53;101965.81;;;6.18;100.00
45525;BME280;31437;58.350;13.828;2023-02-13T14:53:22;101969.31;;;6.12;100.00
45525;BME280;31437;58.350;13.828;2023-02-13T14:55:49;101967.63;;;6.05;100.00
45525;BME280;31437;58.350;13.828;2023-02-13T14:58:25;101966.81;;;6.00;100.00
45525;BME280;31437;58.350;13.828;2023-02-13T15:00:56;101971.19;;;5.95;100.00
45525;BME280;31437;58.350;13.828;2023-02-13T15:03:35;101972.91;;;5.90;100.00
45525;BME280;31437;58.350;13.828;2023-02-13T15:06:03;101979.88;;;5.85;100.00
45525;BME280;31437;58.350;13.828;2023-02-13T15:08:37;101980.78;;;5.81;100.00
45525;BME280;31437;58.350;13.828;2023-02-13T15:11:05;101982.56;;;5.77;100.00
45525;BME280;31437;58.350;13.828;2023-02-13T15:13:50;101984.31;;;5.74;100.00
45525;BME280;31437;58.350;13.828;2023-02-13T15:16:15;101988.69;;;5.68;100.00